Time;durP1;ratioP1;P1;durP2;ratioP2;P2;SDS_P1;SDS_P2;PMS_P1;PMS_P2;Temp;Humidity;BMP_temperature;BMP_pressure;BME280_temperature;BME280_humidity;BME280_pressure;Samples;Min_cycle;Max_cycle;Signal;HPM_P1;HPM_P2
2022/03/01 00:03:02;;;;;;;7.78;5.07;;;;;;;-2.04;100.00;99897.66;10355715;28;20133;-52
2022/03/01 00:08:06;;;;;;;6.30;4.60;;;;;;;-2.08;100.00;99889.88;10336355;28;20073;-53
2022/03/01 00:13:10;;;;;;;5.53;4.15;;;;;;;-2.09;100.00;99888.16;10333995;28;20043;-55
2022/03/01 00:18:13;;;;;;;6.35;4.50;;;;;;;-2.12;100.00;99881.19;10338226;28;20046;-55
2022/03/01 00:23:17;;;;;;;6.18;4.35;;;;;;;-2.13;100.00;99875.94;10360264;28;20053;-52
2022/03/01 00:28:20;;;;;;;5.40;4.47;;;;;;;-2.13;100.00;99883.84;10334277;28;20047;-58
2022/03/01 00:33:23;;;;;;;5.00;3.90;;;;;;;-2.14;100.00;99874.19;10338989;28;20133;-55
2022/03/01 00:38:27;;;;;;;5.80;4.10;;;;;;;-2.17;100.00;99869.88;10334640;28;20133;-55
2022/03/01 00:43:30;;;;;;;5.53;4.13;;;;;;;-2.19;100.00;99867.28;10335172;28;20042;-55
2022/03/01 00:48:34;;;;;;;5.60;4.10;;;;;;;-2.21;100.00;99871.75;10336993;28;20494;-53
2022/03/01 00:53:41;;;;;;;5.80;3.92;;;;;;;-2.25;100.00;99856.91;10338051;28;20058;-52
2022/03/01 00:58:44;;;;;;;5.70;3.85;;;;;;;-2.25;100.00;99859.53;10332798;28;20049;-52
2022/03/01 01:03:47;;;;;;;6.63;3.85;;;;;;;-2.27;100.00;99848.16;10333446;28;20077;-58
2022/03/01 01:09:17;;;;;;;5.35;3.92;;;;;;;-2.30;100.00;99853.53;10332390;28;20056;-52
2022/03/01 01:14:20;;;;;;;5.60;4.15;;;;;;;-2.34;100.00;99849.25;10325000;28;20064;-58
2022/03/01 01:19:23;;;;;;;4.43;3.67;;;;;;;-2.35;100.00;99847.50;10324736;28;20048;-52
2022/03/01 01:24:28;;;;;;;6.53;4.00;;;;;;;-2.40;100.00;99846.78;10324490;28;20054;-55
2022/03/01 01:29:31;;;;;;;5.95;3.70;;;;;;;-2.41;100.00;99847.72;10328241;28;20062;-51
2022/03/01 01:34:34;;;;;;;5.47;3.95;;;;;;;-2.45;100.00;99840.78;10325804;28;20050;-53
2022/03/01 01:39:38;;;;;;;4.97;3.45;;;;;;;-2.48;100.00;99847.88;10327869;28;20056;-57
2022/03/01 01:44:43;;;;;;;4.45;3.60;;;;;;;-2.53;100.00;99849.75;10327268;28;20052;-56
2022/03/01 01:50:09;;;;;;;4.70;3.42;;;;;;;-2.54;100.00;99855.09;10331566;28;20581;-54
2022/03/01 01:55:14;;;;;;;5.30;3.80;;;;;;;-2.58;100.00;99841.13;10339195;28;20137;-57
2022/03/01 02:00:18;;;;;;;5.10;3.45;;;;;;;-2.58;100.00;99846.41;10327704;28;20089;-54
2022/03/01 02:05:21;;;;;;;4.45;3.42;;;;;;;-2.58;100.00;99845.50;10327663;28;20073;-58
2022/03/01 02:10:25;;;;;;;5.28;3.50;;;;;;;-2.58;100.00;99843.75;10324466;28;20125;-56
2022/03/01 02:15:29;;;;;;;4.70;3.40;;;;;;;-2.57;100.00;99842.84;10335542;28;20070;-57
2022/03/01 02:20:33;;;;;;;3.70;3.10;;;;;;;-2.56;100.00;99852.50;10323508;28;20050;-58
2022/03/01 02:25:37;;;;;;;5.80;3.17;;;;;;;-2.58;100.00;99845.50;10327715;28;20161;-58
2022/03/01 02:30:40;;;;;;;4.50;3.22;;;;;;;-2.63;100.00;99841.25;10325711;28;20121;-54
2022/03/01 02:35:45;;;;;;;4.50;3.40;;;;;;;-2.67;100.00;99842.25;10328632;28;20222;-55
2022/03/01 02:40:48;;;;;;;4.43;3.47;;;;;;;-2.67;100.00;99839.59;10326536;28;20054;-54
2022/03/01 02:45:51;;;;;;;5.13;3.50;;;;;;;-2.68;100.00;99831.75;10324875;28;20053;-57
2022/03/01 02:50:56;;;;;;;6.25;3.33;;;;;;;-2.66;100.00;99832.56;10322583;28;20066;-56
2022/03/01 02:55:59;;;;;;;4.78;3.25;;;;;;;-2.66;100.00;99828.13;10323735;28;20050;-57
2022/03/01 03:01:02;;;;;;;5.60;3.55;;;;;;;-2.63;100.00;99832.47;10321323;28;20093;-57
2022/03/01 03:06:06;;;;;;;4.65;3.70;;;;;;;-2.63;100.00;99829.81;10325057;28;20042;-55
2022/03/01 03:11:09;;;;;;;4.18;3.20;;;;;;;-2.65;100.00;99823.75;10321925;28;20046;-57
2022/03/01 03:16:12;;;;;;;4.47;3.45;;;;;;;-2.69;100.00;99828.22;10323560;28;20058;-57
2022/03/01 03:21:17;;;;;;;5.72;3.60;;;;;;;-2.68;100.00;99819.41;10340327;28;20045;-58
2022/03/01 03:26:21;;;;;;;4.95;3.53;;;;;;;-2.71;100.00;99819.50;10330101;28;20046;-57
2022/03/01 03:31:24;;;;;;;5.35;3.50;;;;;;;-2.69;100.00;99828.22;10322567;28;20558;-57
2022/03/01 03:36:28;;;;;;;5.97;3.60;;;;;;;-2.71;100.00;99824.78;10323151;28;20054;-54
2022/03/01 03:41:32;;;;;;;4.60;3.50;;;;;;;-2.75;100.00;99825.75;10320505;28;20473;-56
2022/03/01 03:46:35;;;;;;;3.55;3.20;;;;;;;-2.76;100.00;99826.66;10322697;28;20060;-58
2022/03/01 03:51:40;;;;;;;5.00;3.50;;;;;;;-2.76;100.00;99828.47;10321191;28;20034;-55
2022/03/01 03:56:43;;;;;;;4.35;3.63;;;;;;;-2.84;100.00;99824.25;10322214;28;20046;-55
2022/03/01 04:01:47;;;;;;;6.05;3.58;;;;;;;-2.89;100.00;99833.19;10322177;28;20513;-58
2022/03/01 04:06:51;;;;;;;5.47;3.42;;;;;;;-3.00;100.00;99817.66;10323985;28;20149;-57
2022/03/01 04:11:55;;;;;;;5.15;3.60;;;;;;;-3.07;100.00;99827.50;10317732;28;20061;-58
2022/03/01 04:16:58;;;;;;;4.80;3.63;;;;;;;-3.14;100.00;99832.06;10323662;28;20065;-59
2022/03/01 04:22:03;;;;;;;4.32;3.30;;;;;;;-3.21;100.00;99830.47;10320740;28;20567;-58
2022/03/01 04:27:08;;;;;;;6.30;3.75;;;;;;;-3.29;100.00;99821.91;10318861;28;20054;-58
2022/03/01 04:32:12;;;;;;;5.10;3.58;;;;;;;-3.38;100.00;99822.16;10319896;28;20393;-57
2022/03/01 04:37:18;;;;;;;5.90;3.58;;;;;;;-3.51;100.00;99817.19;10320442;28;20554;-58
2022/03/01 04:42:22;;;;;;;4.50;3.50;;;;;;;-3.57;100.00;99819.97;10328125;28;20061;-55
2022/03/01 04:47:27;;;;;;;5.32;3.90;;;;;;;-3.65;100.00;99829.81;10333564;28;20054;-57
2022/03/01 04:52:33;;;;;;;5.20;3.80;;;;;;;-3.75;100.00;99822.16;10364588;28;20046;-58
2022/03/01 04:57:37;;;;;;;5.78;4.13;;;;;;;-3.88;100.00;99826.81;10341081;28;20043;-60
2022/03/01 05:02:42;;;;;;;5.18;3.90;;;;;;;-3.92;100.00;99829.56;10340659;28;20050;-58
2022/03/01 05:07:49;;;;;;;6.47;4.20;;;;;;;-4.01;100.00;99825.38;10350417;28;20137;-56
2022/03/01 05:12:55;;;;;;;5.32;4.10;;;;;;;-4.05;100.00;99836.88;10344637;28;20598;-59
2022/03/01 05:17:59;;;;;;;5.57;4.00;;;;;;;-4.09;100.00;99845.72;10334732;28;20550;-58
2022/03/01 05:23:04;;;;;;;5.25;4.05;;;;;;;-4.13;100.00;99842.31;10339349;28;20057;-55
2022/03/01 05:28:07;;;;;;;7.05;4.40;;;;;;;-4.15;100.00;99837.97;10345163;28;20050;-58
2022/03/01 05:33:13;;;;;;;5.05;3.97;;;;;;;-4.18;100.00;99841.56;10333282;28;20072;-55
2022/03/01 05:38:19;;;;;;;6.15;3.72;;;;;;;-4.19;100.00;99842.47;10332318;28;20065;-59
2022/03/01 05:43:22;;;;;;;6.57;4.10;;;;;;;-4.19;100.00;99840.69;10332087;28;20398;-54
2022/03/01 05:48:26;;;;;;;6.60;4.18;;;;;;;-4.21;100.00;99839.84;10330347;28;20122;-57
2022/03/01 05:53:31;;;;;;;5.53;3.85;;;;;;;-4.20;100.00;99846.84;10334974;28;20129;-59
2022/03/01 05:58:36;;;;;;;5.20;3.97;;;;;;;-4.17;100.00;99843.25;10332178;28;20049;-57
2022/03/01 06:03:39;;;;;;;6.55;3.70;;;;;;;-4.14;100.00;99851.09;10332726;28;20121;-58
2022/03/01 06:08:43;;;;;;;5.30;3.90;;;;;;;-4.10;100.00;99849.25;10328128;28;20065;-56
2022/03/01 06:13:46;;;;;;;6.00;4.07;;;;;;;-4.10;100.00;99849.25;10330286;28;20129;-54
2022/03/01 06:18:49;;;;;;;4.97;3.78;;;;;;;-4.08;100.00;99864.16;10342296;28;20049;-56
2022/03/01 06:23:55;;;;;;;4.95;3.78;;;;;;;-4.04;100.00;99864.94;10345542;28;20132;-58
2022/03/01 06:28:58;;;;;;;5.40;3.92;;;;;;;-3.97;100.00;99866.53;10331857;28;20421;-57
2022/03/01 06:34:01;;;;;;;4.32;3.53;;;;;;;-3.94;100.00;99857.72;10331353;28;20125;-59
2022/03/01 06:39:06;;;;;;;5.50;3.78;;;;;;;-3.84;100.00;99864.50;10330285;28;20134;-59
2022/03/01 06:44:09;;;;;;;4.93;3.45;;;;;;;-3.70;100.00;99869.44;10330403;28;20066;-55
2022/03/01 06:49:12;;;;;;;5.32;3.60;;;;;;;-3.60;100.00;99883.28;10325924;28;20058;-58
2022/03/01 06:54:16;;;;;;;7.15;3.85;;;;;;;-3.52;100.00;99883.97;10322817;28;20060;-59
2022/03/01 06:59:20;;;;;;;5.22;3.88;;;;;;;-3.49;100.00;99889.16;10321952;28;20050;-54
2022/03/01 07:04:23;;;;;;;6.80;3.92;;;;;;;-3.48;100.00;99887.38;10323104;28;20045;-56
2022/03/01 07:09:28;;;;;;;6.13;4.38;;;;;;;-3.45;100.00;99879.41;10324002;28;20084;-61
2022/03/01 07:14:31;;;;;;;6.43;4.40;;;;;;;-3.41;100.00;99878.44;10323360;28;20064;-59
2022/03/01 07:19:33;;;;;;;6.40;4.25;;;;;;;-3.39;100.00;99881.88;10323318;28;20131;-61
2022/03/01 07:24:38;;;;;;;5.60;4.03;;;;;;;-3.31;100.00;99892.25;10330016;28;20034;-57
2022/03/01 07:29:41;;;;;;;5.57;4.03;;;;;;;-3.21;100.00;99891.09;10322762;28;20042;-58
2022/03/01 07:34:44;;;;;;;5.00;3.65;;;;;;;-3.10;100.00;99890.84;10345503;28;20042;-60
2022/03/01 07:39:48;;;;;;;5.35;3.85;;;;;;;-2.97;100.00;99891.41;10341542;22;20425;-80
2022/03/01 07:44:51;;;;;;;6.38;3.90;;;;;;;-2.81;100.00;99900.66;10343309;28;20060;-80
2022/03/01 07:49:54;;;;;;;5.32;3.88;;;;;;;-2.62;100.00;99897.50;10354352;28;20468;-80
2022/03/01 07:54:58;;;;;;;5.22;3.88;;;;;;;-2.49;100.00;99892.78;10385549;23;20425;-60
2022/03/01 08:00:02;;;;;;;5.38;3.72;;;;;;;-2.29;100.00;99897.47;10337956;28;20519;-59
2022/03/01 08:05:14;;;;;;;6.10;4.20;;;;;;;-2.05;100.00;99895.03;10328406;28;20094;-60
2022/03/01 08:10:26;;;;;;;6.05;3.97;;;;;;;-1.81;100.00;99895.22;10333578;28;20045;-62
2022/03/01 08:15:30;;;;;;;5.13;3.63;;;;;;;-1.56;100.00;99884.78;10329109;28;20051;-61
2022/03/01 08:20:33;;;;;;;6.32;3.50;;;;;;;-1.25;100.00;99871.44;10334693;28;20101;-59
2022/03/01 08:25:37;;;;;;;6.38;3.10;;;;;;;-0.94;100.00;99878.34;10343356;28;20130;-60
2022/03/01 08:30:40;;;;;;;4.35;3.10;;;;;;;-0.76;100.00;99872.47;10324961;28;20422;-57
2022/03/01 08:35:43;;;;;;;5.15;3.10;;;;;;;-0.58;100.00;99874.44;10329295;28;20053;-57
2022/03/01 08:40:48;;;;;;;4.70;3.47;;;;;;;-0.30;100.00;99869.97;10344744;28;20430;-58
2022/03/01 08:45:52;;;;;;;3.83;3.10;;;;;;;-0.08;94.42;99873.53;10340872;28;20042;-57
2022/03/01 08:50:55;;;;;;;5.68;3.15;;;;;;;0.09;98.42;99853.47;10332162;28;20136;-56
2022/03/01 08:56:00;;;;;;;5.13;3.17;;;;;;;0.34;86.83;99850.72;10354654;28;20132;-59
2022/03/01 09:01:03;;;;;;;5.53;3.30;;;;;;;0.44;88.53;99846.78;10352169;28;20121;-60
2022/03/01 09:06:07;;;;;;;4.45;3.10;;;;;;;0.60;86.42;99839.06;10360670;28;20115;-59
2022/03/01 09:11:12;;;;;;;4.57;2.88;;;;;;;0.79;76.25;99840.09;10356212;28;20068;-59
2022/03/01 09:16:15;;;;;;;4.03;3.08;;;;;;;0.92;88.98;99838.66;10355096;28;20129;-60
2022/03/01 09:21:18;;;;;;;3.70;2.70;;;;;;;1.14;81.84;99835.06;10322374;28;20465;-60
2022/03/01 09:26:23;;;;;;;4.45;2.78;;;;;;;1.25;77.43;99829.28;10328434;28;20093;-62
2022/03/01 09:31:26;;;;;;;5.57;2.80;;;;;;;1.38;67.88;99819.84;10329411;28;20125;-62
2022/03/01 09:36:29;;;;;;;3.22;2.80;;;;;;;1.59;69.62;99814.53;10331691;28;20045;-62
2022/03/01 09:41:37;;;;;;;4.25;2.80;;;;;;;1.65;72.23;99807.09;10319124;28;20573;-62
2022/03/01 09:46:40;;;;;;;4.50;2.90;;;;;;;1.82;69.94;99814.31;10319380;28;20050;-62
2022/03/01 09:51:43;;;;;;;4.50;3.00;;;;;;;1.97;72.47;99806.53;10344218;28;20051;-62
2022/03/01 09:56:47;;;;;;;4.35;2.78;;;;;;;2.10;65.98;99802.38;10338934;28;20046;-62
2022/03/01 10:01:51;;;;;;;4.72;2.75;;;;;;;2.22;65.28;99789.44;10339119;28;20129;-63
2022/03/01 10:06:55;;;;;;;3.97;2.80;;;;;;;2.38;65.95;99781.56;10342026;28;20050;-65
2022/03/01 10:12:04;;;;;;;5.47;3.00;;;;;;;2.49;61.76;99770.41;10347611;28;20134;-64
2022/03/01 10:17:16;;;;;;;3.83;2.75;;;;;;;2.62;63.25;99769.69;10343756;28;20064;-65
2022/03/01 10:22:22;;;;;;;;;;;;;;;2.76;57.39;99766.31;10327530;28;20554;-62
2022/03/01 10:27:29;;;;;;;3.35;2.60;;;;;;;2.90;60.37;99760.31;10325507;28;19989;-63
2022/03/01 10:32:33;;;;;;;3.80;2.75;;;;;;;3.03;62.38;99749.88;10356937;28;20042;-64
2022/03/01 10:37:40;;;;;;;3.92;2.67;;;;;;;3.17;61.82;99740.31;10344846;28;20045;-64
2022/03/01 10:42:45;;;;;;;3.28;2.50;;;;;;;3.35;58.82;99735.78;10359123;28;20107;-63
2022/03/01 10:47:53;;;;;;;2.97;2.38;;;;;;;3.55;57.53;99724.06;10332695;28;20140;-63
2022/03/01 10:52:57;;;;;;;3.42;2.47;;;;;;;3.66;58.58;99727.00;10345474;28;20129;-61
2022/03/01 10:58:04;;;;;;;5.93;3.78;;;;;;;3.76;56.88;99711.34;10327365;28;20121;-61
2022/03/01 11:03:09;;;;;;;3.10;2.60;;;;;;;4.02;56.99;99714.31;10327496;28;20069;-61
2022/03/01 11:08:16;;;;;;;3.20;2.40;;;;;;;4.09;57.16;99718.38;10319704;28;20053;-65
2022/03/01 11:13:25;;;;;;;4.53;2.65;;;;;;;4.27;55.46;99704.91;10318278;28;20049;-59
2022/03/01 11:18:39;;;;;;;3.78;2.75;;;;;;;4.31;54.16;99696.63;10318616;28;20081;-59
2022/03/01 11:23:44;;;;;;;3.00;2.25;;;;;;;4.35;55.08;99689.31;10337639;28;20066;-58
2022/03/01 11:28:54;;;;;;;3.40;2.05;;;;;;;4.58;53.79;99682.63;10330244;28;20041;-60
2022/03/01 11:33:59;;;;;;;3.33;2.42;;;;;;;4.67;54.43;99675.88;10347401;28;20125;-63
2022/03/01 11:39:11;;;;;;;3.90;2.30;;;;;;;4.83;53.33;99673.13;10343012;28;20038;-61
2022/03/01 11:44:19;;;;;;;;;;;;;;;5.04;51.14;99672.75;10329776;28;20034;-59
2022/03/01 11:49:23;;;;;;;3.92;2.55;;;;;;;5.19;51.45;99666.47;10346193;28;19925;-61
2022/03/01 11:54:29;;;;;;;4.25;2.50;;;;;;;5.29;52.31;99660.53;10331228;28;20053;-61
2022/03/01 11:59:38;;;;;;;3.80;2.50;;;;;;;5.36;51.63;99649.38;10333349;28;20050;-65
2022/03/01 12:04:57;;;;;;;3.20;2.22;;;;;;;5.52;54.42;99641.22;10347798;28;20057;-62
2022/03/01 12:10:02;;;;;;;3.28;2.30;;;;;;;5.65;54.64;99640.41;10345168;28;20061;-63
2022/03/01 12:15:08;;;;;;;3.15;2.00;;;;;;;5.77;51.32;99638.75;10333945;28;20463;-63
2022/03/01 12:20:13;;;;;;;3.00;2.28;;;;;;;5.82;54.56;99632.13;10326215;28;20065;-61
2022/03/01 12:25:16;;;;;;;4.32;2.50;;;;;;;5.93;55.87;99627.91;10340418;28;20078;-63
2022/03/01 12:30:26;;;;;;;3.03;2.35;;;;;;;6.05;48.81;99620.91;10332828;28;20046;-63
2022/03/01 12:35:44;;;;;;;3.67;2.30;;;;;;;6.16;50.16;99627.28;10328051;28;20062;-65
2022/03/01 12:40:54;;;;;;;3.70;2.45;;;;;;;6.30;51.06;99620.97;10341646;28;20050;-65
2022/03/01 12:46:00;;;;;;;2.15;1.95;;;;;;;6.33;49.30;99617.22;10377430;28;20048;-64
2022/03/01 12:51:04;;;;;;;3.03;2.22;;;;;;;6.48;49.44;99608.16;10361990;28;20061;-61
2022/03/01 12:56:19;;;;;;;2.90;2.10;;;;;;;6.87;49.25;99613.50;10344597;28;20983;-63
2022/03/01 13:01:24;;;;;;;2.20;2.00;;;;;;;7.11;49.12;99603.84;10332321;28;20170;-61
2022/03/01 13:06:31;;;;;;;3.47;2.08;;;;;;;7.36;47.01;99593.03;10351027;28;20042;-62
2022/03/01 13:11:37;;;;;;;2.38;2.05;;;;;;;7.69;48.95;99588.88;10359796;28;20113;-61
2022/03/01 13:16:45;;;;;;;3.13;1.90;;;;;;;7.80;45.79;99587.22;10368093;28;20053;-62
2022/03/01 13:21:50;;;;;;;2.88;1.92;;;;;;;7.86;48.46;99584.06;10345620;28;20111;-62
2022/03/01 13:26:58;;;;;;;2.45;1.60;;;;;;;8.29;47.75;99575.41;10364175;28;20418;-66
2022/03/01 13:32:06;;;;;;;2.63;1.50;;;;;;;8.81;43.58;99553.53;10369839;28;20038;-59
2022/03/01 13:37:13;;;;;;;2.15;1.70;;;;;;;8.82;41.60;99555.25;10365827;28;20073;-62
2022/03/01 13:42:17;;;;;;;3.47;1.63;;;;;;;9.04;42.84;99553.53;10351694;28;20073;-59
2022/03/01 13:47:24;;;;;;;2.28;1.45;;;;;;;8.82;38.77;99544.50;10347908;28;20054;-61
2022/03/01 13:52:30;;;;;;;2.25;1.70;;;;;;;8.78;40.53;99535.84;10319843;28;20141;-60
2022/03/01 13:57:35;;;;;;;2.38;1.75;;;;;;;8.76;42.21;99537.78;10342820;28;20133;-61
2022/03/01 14:02:40;;;;;;;2.25;1.55;;;;;;;8.68;40.49;99531.31;10343013;28;20058;-62
2022/03/01 14:07:44;;;;;;;3.25;1.83;;;;;;;9.10;40.63;99528.84;10334932;28;20046;-63
2022/03/01 14:12:47;;;;;;;1.85;1.65;;;;;;;9.13;39.90;99519.69;10323186;28;20054;-60
2022/03/01 14:17:57;;;;;;;3.08;1.63;;;;;;;9.48;37.68;99514.06;10339148;28;20042;-63
2022/03/01 14:23:01;;;;;;;2.13;1.50;;;;;;;9.95;39.87;99510.19;10338827;28;20125;-60
2022/03/01 14:28:06;;;;;;;2.00;1.63;;;;;;;9.91;38.11;99506.09;10321955;28;20652;-62
2022/03/01 14:33:11;;;;;;;1.50;1.40;;;;;;;9.91;36.91;99504.22;10323246;28;20572;-62
2022/03/01 14:38:14;;;;;;;1.40;1.30;;;;;;;10.29;39.66;99500.09;10342751;28;20526;-65
2022/03/01 14:43:23;;;;;;;3.08;1.30;;;;;;;10.51;39.78;99500.09;10338360;28;20040;-63
2022/03/01 14:48:27;;;;;;;2.15;1.30;;;;;;;10.70;36.29;99494.78;10324405;28;20100;-56
2022/03/01 14:53:31;;;;;;;2.83;1.40;;;;;;;10.67;37.39;99491.53;10331719;28;20181;-60
2022/03/01 14:58:35;;;;;;;1.88;1.35;;;;;;;10.81;38.13;99483.06;10345890;28;20056;-63
2022/03/01 15:03:53;;;;;;;1.88;1.23;;;;;;;10.66;35.04;99479.03;10332566;28;20494;-64
2022/03/01 15:09:00;;;;;;;1.80;1.40;;;;;;;10.32;36.59;99480.13;10352723;28;20116;-63
2022/03/01 15:14:03;;;;;;;3.45;1.30;;;;;;;10.32;36.93;99491.75;10354819;28;20465;-60
2022/03/01 15:19:08;;;;;;;1.58;1.45;;;;;;;10.44;36.54;99483.63;10354276;28;20038;-63
2022/03/01 15:24:12;;;;;;;3.92;1.45;;;;;;;10.57;36.31;99480.69;10337093;28;20046;-62
2022/03/01 15:29:16;;;;;;;2.60;1.33;;;;;;;10.42;34.74;99475.66;10333688;28;20042;-65
2022/03/01 15:34:21;;;;;;;2.15;1.30;;;;;;;10.43;36.26;99471.13;10334775;28;20133;-64
2022/03/01 15:39:24;;;;;;;3.42;1.40;;;;;;;10.05;35.08;99468.06;10336491;28;20498;-62
2022/03/01 15:44:27;;;;;;;3.30;1.30;;;;;;;9.74;36.41;99472.53;10331497;28;20130;-61
2022/03/01 15:49:33;;;;;;;2.15;1.50;;;;;;;9.60;38.04;99473.69;10319199;28;20069;-60
2022/03/01 15:54:37;;;;;;;1.80;1.50;;;;;;;9.47;39.73;99469.31;10342718;28;20062;-65
2022/03/01 15:59:41;;;;;;;3.28;1.80;;;;;;;9.37;39.55;99465.69;10342966;28;20037;-64
2022/03/01 16:11:38;;;;;;;2.97;2.00;;;;;;;9.10;42.21;99473.25;10339823;28;20034;-64
2022/03/01 16:16:42;;;;;;;1.63;1.40;;;;;;;8.94;43.57;99470.94;10340931;28;20153;-66
2022/03/01 16:21:45;;;;;;;2.50;1.80;;;;;;;8.45;45.67;99466.81;10316666;28;20104;-65
2022/03/01 16:26:49;;;;;;;5.00;1.70;;;;;;;7.86;48.37;99461.50;10332720;28;20125;-64
2022/03/01 16:31:52;;;;;;;4.13;1.70;;;;;;;7.49;48.67;99461.63;10344306;28;20082;-64
2022/03/01 16:36:57;;;;;;;2.83;1.88;;;;;;;6.99;49.12;99467.09;10340989;28;20042;-65
2022/03/01 16:42:01;;;;;;;2.10;1.90;;;;;;;6.69;48.03;99473.72;10348969;28;20047;-67
2022/03/01 16:47:05;;;;;;;3.22;2.00;;;;;;;6.46;49.01;99478.06;10352881;28;20488;-63
2022/03/01 16:52:10;;;;;;;2.40;2.13;;;;;;;6.22;49.25;99472.59;10318348;28;20168;-64
2022/03/01 16:57:17;;;;;;;5.53;2.78;;;;;;;5.57;53.75;99474.31;10332571;28;20046;-63
2022/03/01 17:02:20;;;;;;;5.00;2.78;;;;;;;5.13;57.20;99479.81;10342521;28;20050;-61
2022/03/01 17:07:24;;;;;;;5.93;2.80;;;;;;;4.76;61.80;99479.56;10338993;28;20062;-61
2022/03/01 17:12:28;;;;;;;3.45;2.95;;;;;;;4.49;67.28;99480.34;10351825;28;20121;-61
2022/03/01 17:17:36;;;;;;;4.45;3.08;;;;;;;4.35;72.08;99473.19;10334526;28;20042;-67
2022/03/01 17:22:40;;;;;;;4.55;3.30;;;;;;;4.15;74.74;99482.44;10346241;28;20132;-62
2022/03/01 17:27:45;;;;;;;4.18;3.10;;;;;;;4.00;77.96;99485.09;10341522;28;20445;-61
2022/03/01 17:32:48;;;;;;;5.40;3.80;;;;;;;3.90;80.73;99483.06;10346332;28;20045;-62
2022/03/01 17:37:52;;;;;;;5.53;3.40;;;;;;;3.73;84.45;99470.75;10342541;28;20117;-59
2022/03/01 17:42:56;;;;;;;4.88;3.13;;;;;;;3.61;88.10;99473.19;10352247;28;20517;-62
2022/03/01 17:48:00;;;;;;;5.07;3.10;;;;;;;3.49;89.54;99473.91;10352616;28;20061;-63
2022/03/01 17:53:04;;;;;;;4.03;3.10;;;;;;;3.34;86.44;99478.34;10348664;28;20117;-64
2022/03/01 17:58:08;;;;;;;4.93;3.45;;;;;;;3.30;87.27;99471.47;10337728;28;20048;-64
2022/03/01 18:03:11;;;;;;;4.35;3.20;;;;;;;3.17;88.06;99463.34;10353986;28;20038;-64
2022/03/01 18:08:14;;;;;;;5.07;3.47;;;;;;;3.07;88.37;99466.53;10358948;28;20487;-65
2022/03/01 18:13:19;;;;;;;4.70;3.65;;;;;;;2.98;87.72;99472.41;10359898;28;20049;-62
2022/03/01 18:18:24;;;;;;;5.72;3.10;;;;;;;2.87;88.91;99466.81;10341831;28;20073;-64
2022/03/01 18:23:27;;;;;;;4.22;3.40;;;;;;;2.74;89.98;99475.50;10335400;28;20124;-62
2022/03/01 18:28:32;;;;;;;4.82;3.15;;;;;;;2.67;89.72;99482.06;10328765;28;20123;-63
2022/03/01 18:33:36;;;;;;;3.92;3.13;;;;;;;2.60;89.54;99470.06;10320893;28;20141;-65
2022/03/01 18:38:39;;;;;;;4.05;2.97;;;;;;;2.52;90.26;99472.31;10337224;28;20395;-61
2022/03/01 18:43:45;;;;;;;5.05;3.10;;;;;;;2.45;92.95;99472.63;10344190;28;20399;-64
2022/03/01 18:48:49;;;;;;;5.75;3.70;;;;;;;2.42;90.70;99459.47;10336621;28;20046;-58
2022/03/01 18:53:52;;;;;;;5.53;3.25;;;;;;;2.39;89.59;99466.78;10342759;28;20052;-59
2022/03/01 18:58:57;;;;;;;4.82;3.47;;;;;;;2.37;88.33;99464.22;10353882;28;20050;-57
2022/03/01 19:04:00;;;;;;;4.43;3.33;;;;;;;2.36;89.12;99457.16;10345573;28;20478;-60
2022/03/01 19:09:07;;;;;;;4.18;3.05;;;;;;;2.37;90.42;99458.88;10327975;28;20057;-61
2022/03/01 19:14:12;;;;;;;5.40;3.50;;;;;;;2.26;92.69;99455.97;10350780;28;20094;-61
2022/03/01 19:19:15;;;;;;;6.60;3.25;;;;;;;2.16;96.34;99450.25;10351708;28;20060;-61
2022/03/01 19:24:19;;;;;;;4.90;3.55;;;;;;;2.11;97.93;99453.16;10356884;28;20045;-60
2022/03/01 19:29:24;;;;;;;5.07;4.00;;;;;;;1.95;100.00;99458.44;10353590;28;20041;-61
2022/03/01 19:34:27;;;;;;;6.47;3.78;;;;;;;1.79;100.00;99461.06;10346493;28;20069;-63
2022/03/01 19:39:30;;;;;;;4.78;3.92;;;;;;;1.77;100.00;99449.63;10334785;28;20136;-63
2022/03/01 19:44:35;;;;;;;5.32;3.80;;;;;;;1.69;100.00;99451.84;10357559;28;20138;-61
2022/03/01 19:49:39;;;;;;;4.80;3.90;;;;;;;1.62;100.00;99461.94;10351425;28;20058;-60
2022/03/01 19:54:43;;;;;;;6.20;4.15;;;;;;;1.56;100.00;99451.59;10315976;28;20130;-59
2022/03/01 19:59:49;;;;;;;5.18;4.22;;;;;;;1.49;100.00;99461.69;10289930;28;20054;-63
2022/03/01 20:04:52;;;;;;;6.13;3.72;;;;;;;1.45;100.00;99452.16;10289781;28;20078;-62
2022/03/01 20:09:55;;;;;;;6.25;4.45;;;;;;;1.40;100.00;99443.56;10290789;28;21009;-61
2022/03/01 20:14:59;;;;;;;5.80;4.22;;;;;;;1.37;100.00;99443.72;10294080;28;20149;-63
2022/03/01 20:20:03;;;;;;;4.45;3.78;;;;;;;1.31;100.00;99446.69;10303364;28;20091;-63
2022/03/01 20:25:09;;;;;;;5.80;4.18;;;;;;;1.26;100.00;99454.00;10307802;28;20038;-62
2022/03/01 20:30:15;;;;;;;5.63;4.45;;;;;;;1.23;100.00;99444.41;10310428;28;20053;-64
2022/03/01 20:35:18;;;;;;;5.97;4.40;;;;;;;1.18;100.00;99444.66;10310305;28;20423;-63
2022/03/01 20:40:27;;;;;;;5.45;4.10;;;;;;;1.16;100.00;99449.16;10303325;28;20107;-60
2022/03/01 20:45:32;;;;;;;7.65;4.38;;;;;;;1.11;100.00;99461.81;10315360;28;21756;-60
2022/03/01 20:50:38;;;;;;;5.15;4.25;;;;;;;1.07;100.00;99455.78;10308426;28;20109;-58
2022/03/01 20:55:42;;;;;;;6.40;4.20;;;;;;;1.06;100.00;99458.53;10318248;28;20042;-63
2022/03/01 21:00:48;;;;;;;7.35;3.75;;;;;;;1.02;100.00;99451.63;10320714;28;20077;-57
2022/03/01 21:05:51;;;;;;;8.90;4.25;;;;;;;0.98;100.00;99458.03;10317001;28;20129;-59
2022/03/01 21:10:54;;;;;;;4.93;3.80;;;;;;;0.92;100.00;99448.59;10315567;28;20511;-59
2022/03/01 21:15:58;;;;;;;8.13;3.90;;;;;;;0.83;100.00;99447.22;10326139;28;20426;-59
2022/03/01 21:21:08;;;;;;;4.90;4.05;;;;;;;0.82;100.00;99450.81;10303562;28;20046;-58
2022/03/01 21:26:12;;;;;;;5.95;4.10;;;;;;;0.80;100.00;99444.72;10299090;28;20042;-59
2022/03/01 21:31:17;;;;;;;5.28;3.88;;;;;;;0.81;100.00;99449.09;10291842;28;20138;-58
2022/03/01 21:36:21;;;;;;;5.15;4.15;;;;;;;0.81;100.00;99454.41;10294910;28;20054;-59
2022/03/01 21:41:24;;;;;;;7.10;4.10;;;;;;;0.88;100.00;99458.47;10295881;28;20057;-59
2022/03/01 21:46:30;;;;;;;7.55;4.03;;;;;;;0.94;100.00;99451.16;10303131;28;20723;-58
2022/03/01 21:51:33;;;;;;;5.45;4.05;;;;;;;0.99;100.00;99452.66;10305679;28;20072;-57
2022/03/01 21:56:36;;;;;;;5.75;3.83;;;;;;;1.04;100.00;99453.31;10346144;28;20545;-59
2022/03/01 22:01:42;;;;;;;5.63;3.70;;;;;;;1.04;100.00;99450.66;10322447;28;20058;-57
2022/03/01 22:06:45;;;;;;;4.65;3.53;;;;;;;1.04;100.00;99450.66;10351057;28;20041;-59
2022/03/01 22:11:48;;;;;;;8.13;3.70;;;;;;;0.98;100.00;99455.38;10329737;28;20050;-59
2022/03/01 22:16:53;;;;;;;5.38;3.97;;;;;;;0.87;100.00;99458.56;10345828;28;20455;-58
2022/03/01 22:21:56;;;;;;;7.47;4.05;;;;;;;0.82;100.00;99453.47;10344051;28;20462;-58
2022/03/01 22:26:59;;;;;;;5.90;3.75;;;;;;;0.74;100.00;99451.19;10352522;28;20549;-58
2022/03/01 22:32:04;;;;;;;5.35;3.85;;;;;;;0.70;100.00;99454.06;10332900;28;20081;-58
2022/03/01 22:37:09;;;;;;;5.88;4.03;;;;;;;0.66;100.00;99452.47;10362841;28;20086;-58
2022/03/01 22:42:13;;;;;;;6.20;4.03;;;;;;;0.61;100.00;99439.44;10356233;28;20056;-59
2022/03/01 22:47:19;;;;;;;6.18;4.07;;;;;;;0.53;100.00;99426.53;10350317;28;20042;-58
2022/03/01 22:52:25;;;;;;;5.88;4.20;;;;;;;0.44;100.00;99425.19;10328004;28;20106;-58
2022/03/01 22:57:28;;;;;;;7.03;4.30;;;;;;;0.31;100.00;99421.41;10330874;28;20037;-59
2022/03/01 23:02:33;;;;;;;5.25;3.80;;;;;;;0.24;100.00;99412.88;10346933;28;20061;-58
2022/03/01 23:07:37;;;;;;;5.20;3.80;;;;;;;0.17;100.00;99416.75;10346531;28;20033;-56
2022/03/01 23:12:41;;;;;;;5.15;3.90;;;;;;;0.16;100.00;99420.31;10383342;28;20078;-58
2022/03/01 23:17:48;;;;;;;5.40;3.72;;;;;;;0.17;100.00;99415.88;10394794;28;20038;-59
2022/03/01 23:22:52;;;;;;;6.72;3.65;;;;;;;0.21;100.00;99420.97;10370687;28;20049;-59
2022/03/01 23:27:55;;;;;;;6.60;3.60;;;;;;;0.19;100.00;99422.81;10324269;28;20078;-58
2022/03/01 23:32:59;;;;;;;6.88;4.07;;;;;;;-0.08;100.00;99423.16;10340941;28;20046;-57
2022/03/01 23:38:03;;;;;;;6.18;4.18;;;;;;;-0.13;100.00;99424.31;10337422;28;20046;-57
2022/03/01 23:43:06;;;;;;;5.32;4.10;;;;;;;-0.18;100.00;99411.28;10342644;28;20442;-58
2022/03/01 23:48:11;;;;;;;5.60;4.40;;;;;;;-0.23;100.00;99415.91;10349073;28;20126;-57